Time;durP1;ratioP1;P1;durP2;ratioP2;P2;SDS_P1;SDS_P2;PMS_P1;PMS_P2;Temp;Humidity;BMP_temperature;BMP_pressure;BME280_temperature;BME280_humidity;BME280_pressure;Samples;Min_cycle;Max_cycle;Signal;HPM_P1;HPM_P2
2022/06/06 00:00:05;;;;;;;9.83;8.87;;;;;;;;;;5047115;28;20218;-65
2022/06/06 00:02:32;;;;;;;10.63;9.53;;;;;;;;;;5051488;28;20205;-66
2022/06/06 00:04:59;;;;;;;10.40;9.50;;;;;;;;;;5052448;28;20247;-65
2022/06/06 00:07:29;;;;;;;9.87;8.87;;;;;;;;;;5050889;28;20251;-65
2022/06/06 00:10:01;;;;;;;11.00;9.90;;;;;;;;;;5055398;28;20194;-65
2022/06/06 00:12:33;;;;;;;10.00;9.10;;;;;;;;;;5060143;28;20213;-65
2022/06/06 00:15:05;;;;;;;9.37;8.47;;;;;;;;;;5038871;28;20198;-66
2022/06/06 00:17:37;;;;;;;10.37;9.37;;;;;;;;;;5052088;28;20205;-66
2022/06/06 00:20:07;;;;;;;10.43;9.43;;;;;;;;;;5036693;28;20213;-66
2022/06/06 00:22:37;;;;;;;9.73;8.77;;;;;;;;;;5050942;28;20218;-66
2022/06/06 00:25:11;;;;;;;9.67;8.77;;;;;;;;;;5024462;28;20229;-66
2022/06/06 00:27:40;;;;;;;10.13;9.13;;;;;;;;;;5033038;28;20271;-66
2022/06/06 00:30:13;;;;;;;10.77;9.70;;;;;;;;;;5036009;28;20287;-66
2022/06/06 00:35:36;;;;;;;9.97;8.97;;;;;;;;;;5047589;28;20198;-65
2022/06/06 00:38:07;;;;;;;10.57;9.50;;;;;;;;;;5054802;28;20199;-66
2022/06/06 00:40:37;;;;;;;9.97;9.07;;;;;;;;;;5045627;28;20203;-66
2022/06/06 00:43:09;;;;;;;10.57;9.60;;;;;;;;;;5045385;28;20218;-66
2022/06/06 00:45:37;;;;;;;9.90;8.90;;;;;;;;;;5043810;28;20191;-66
2022/06/06 00:48:16;;;;;;;9.50;8.60;;;;;;;;;;5051254;28;20218;-65
2022/06/06 00:50:47;;;;;;;9.50;8.63;;;;;;;;;;5053403;28;20186;-66
2022/06/06 00:53:15;;;;;;;10.20;9.20;;;;;;;;;;5049417;28;20229;-66
2022/06/06 00:55:44;;;;;;;9.83;8.93;;;;;;;;;;5043430;28;20191;-65
2022/06/06 00:58:15;;;;;;;10.00;9.07;;;;;;;;;;5051771;28;20209;-65
2022/06/06 01:00:45;;;;;;;9.40;8.50;;;;;;;;;;5051508;28;20714;-66
2022/06/06 01:03:23;;;;;;;9.67;8.77;;;;;;;;;;5046972;28;20206;-65
2022/06/06 01:05:55;;;;;;;10.80;9.83;;;;;;;;;;5035195;28;20226;-65
2022/06/06 01:08:24;;;;;;;9.97;8.97;;;;;;;;;;5029487;28;20229;-65
2022/06/06 01:10:52;;;;;;;10.20;9.30;;;;;;;;;;5048496;28;20206;-65
2022/06/06 01:13:26;;;;;;;10.10;9.10;;;;;;;;;;5042096;28;20206;-65
2022/06/06 01:16:12;;;;;;;10.30;9.30;;;;;;;;;;5029559;28;20696;-66
2022/06/06 01:19:12;;;;;;;9.77;8.87;;;;;;;;;;5044926;28;20186;-65
2022/06/06 01:21:54;;;;;;;9.50;8.60;;;;;;;;;;5002325;28;20219;-65
2022/06/06 01:24:31;;;;;;;10.03;9.03;;;;;;;;;;5039312;28;20711;-65
2022/06/06 01:27:19;;;;;;;9.67;8.77;;;;;;;;;;5048012;28;20240;-65
2022/06/06 01:29:50;;;;;;;9.60;8.80;;;;;;;;;;5031592;28;20252;-65
2022/06/06 01:32:23;;;;;;;10.67;9.57;;;;;;;;;;5030469;28;20258;-65
2022/06/06 01:34:57;;;;;;;9.63;8.73;;;;;;;;;;5043880;28;20199;-65
2022/06/06 01:37:43;;;;;;;9.80;8.90;;;;;;;;;;5040758;28;20216;-66
2022/06/06 01:40:12;;;;;;;10.53;9.63;;;;;;;;;;5015232;28;20671;-65
2022/06/06 01:42:49;;;;;;;9.70;8.90;;;;;;;;;;5055283;28;20209;-66
2022/06/06 01:45:25;;;;;;;9.50;8.60;;;;;;;;;;5045590;28;20212;-65
2022/06/06 01:48:02;;;;;;;10.20;9.30;;;;;;;;;;5044818;28;20236;-65
2022/06/06 01:50:39;;;;;;;10.27;9.33;;;;;;;;;;5037525;28;20193;-65
2022/06/06 01:53:30;;;;;;;10.60;9.50;;;;;;;;;;5029522;28;20391;-65
2022/06/06 01:56:00;;;;;;;10.50;9.50;;;;;;;;;;5034059;28;20272;-65
2022/06/06 01:58:34;;;;;;;9.70;8.73;;;;;;;;;;5047020;28;20203;-65
2022/06/06 02:01:07;;;;;;;10.67;9.67;;;;;;;;;;5028012;28;20206;-65
2022/06/06 02:03:38;;;;;;;9.80;8.90;;;;;;;;;;5042708;28;20276;-65
2022/06/06 02:06:06;;;;;;;9.57;8.77;;;;;;;;;;5046251;28;20217;-65
2022/06/06 02:08:34;;;;;;;10.27;9.27;;;;;;;;;;5040812;28;20185;-65
2022/06/06 02:11:01;;;;;;;10.17;9.30;;;;;;;;;;5046944;28;20194;-65
2022/06/06 02:13:28;;;;;;;10.40;9.40;;;;;;;;;;5042360;28;20206;-65
2022/06/06 02:15:56;;;;;;;10.60;9.70;;;;;;;;;;5045394;28;20756;-65
2022/06/06 02:18:23;;;;;;;10.20;9.30;;;;;;;;;;5046110;28;20801;-65
2022/06/06 02:20:50;;;;;;;9.67;8.87;;;;;;;;;;5031211;28;20202;-65
2022/06/06 02:23:17;;;;;;;10.20;9.30;;;;;;;;;;5046133;28;20214;-65
2022/06/06 02:25:45;;;;;;;10.20;9.30;;;;;;;;;;5041235;28;20257;-66
2022/06/06 02:28:12;;;;;;;9.87;8.97;;;;;;;;;;5050085;28;20198;-65
2022/06/06 02:30:39;;;;;;;10.13;9.13;;;;;;;;;;5048778;28;20193;-66
2022/06/06 02:33:06;;;;;;;10.17;9.17;;;;;;;;;;5048649;28;20236;-66
2022/06/06 02:35:36;;;;;;;10.40;9.43;;;;;;;;;;5043748;28;20264;-65
2022/06/06 02:38:03;;;;;;;10.00;9.10;;;;;;;;;;5049425;28;20198;-66
2022/06/06 02:40:30;;;;;;;10.87;9.87;;;;;;;;;;5049997;28;20640;-66
2022/06/06 02:42:58;;;;;;;10.67;9.67;;;;;;;;;;5049433;28;20194;-66
2022/06/06 02:45:26;;;;;;;10.40;9.50;;;;;;;;;;5019151;28;20720;-65
2022/06/06 02:47:55;;;;;;;10.50;9.50;;;;;;;;;;5051764;28;20241;-65
2022/06/06 02:50:25;;;;;;;9.97;9.17;;;;;;;;;;5056802;28;20194;-65
2022/06/06 02:52:52;;;;;;;9.43;8.63;;;;;;;;;;5050618;28;20202;-65
2022/06/06 02:55:20;;;;;;;9.10;8.37;;;;;;;;;;5032508;28;20260;-65
2022/06/06 02:57:48;;;;;;;9.60;8.80;;;;;;;;;;5047565;28;20201;-66
2022/06/06 03:00:19;;;;;;;9.93;9.03;;;;;;;;;;5047794;28;20214;-66
2022/06/06 03:02:46;;;;;;;9.90;9.00;;;;;;;;;;5050257;28;20886;-66
2022/06/06 03:05:14;;;;;;;10.23;9.33;;;;;;;;;;5051224;28;20214;-65
2022/06/06 03:07:51;;;;;;;9.97;9.07;;;;;;;;;;5033962;28;20252;-65
2022/06/06 03:10:27;;;;;;;10.10;9.20;;;;;;;;;;5044709;28;20294;-65
2022/06/06 03:13:09;;;;;;;9.67;8.87;;;;;;;;;;5044049;28;20581;-65
2022/06/06 03:21:48;;;;;;;9.90;9.00;;;;;;;;;;5046950;28;20859;-65
2022/06/06 03:24:28;;;;;;;9.17;8.30;;;;;;;;;;5051389;28;20229;-65
2022/06/06 03:27:14;;;;;;;8.60;7.90;;;;;;;;;;5046643;28;20256;-65
2022/06/06 03:29:47;;;;;;;9.77;8.80;;;;;;;;;;5029476;28;20194;-64
2022/06/06 03:32:21;;;;;;;8.23;7.53;;;;;;;;;;5049451;28;20234;-65
2022/06/06 03:35:00;;;;;;;9.00;8.30;;;;;;;;;;5048672;28;20186;-65
2022/06/06 03:37:38;;;;;;;8.80;8.00;;;;;;;;;;5032007;28;20264;-65
2022/06/06 03:40:35;;;;;;;8.97;8.07;;;;;;;;;;5042064;28;20194;-65
2022/06/06 03:43:21;;;;;;;9.70;8.80;;;;;;;;;;5018400;28;20240;-65
2022/06/06 03:45:49;;;;;;;9.00;8.20;;;;;;;;;;5046610;28;20234;-65
2022/06/06 03:48:29;;;;;;;9.20;8.40;;;;;;;;;;5044577;28;20211;-66
2022/06/06 03:51:03;;;;;;;8.13;7.43;;;;;;;;;;5027547;28;20248;-67
2022/06/06 03:53:48;;;;;;;8.80;8.00;;;;;;;;;;5040076;28;20202;-66
2022/06/06 03:56:16;;;;;;;8.37;7.67;;;;;;;;;;5041961;28;20213;-69
2022/06/06 03:58:44;;;;;;;7.97;7.27;;;;;;;;;;5043796;28;20383;-68
2022/06/06 04:01:14;;;;;;;8.63;7.83;;;;;;;;;;5039144;28;20269;-66
2022/06/06 04:03:45;;;;;;;8.30;7.53;;;;;;;;;;5043627;28;20647;-66
2022/06/06 04:06:14;;;;;;;7.80;7.10;;;;;;;;;;5028557;28;20211;-66
2022/06/06 04:08:41;;;;;;;8.27;7.47;;;;;;;;;;5042076;28;20194;-65
2022/06/06 04:11:15;;;;;;;7.80;7.00;;;;;;;;;;5048440;28;20702;-68
2022/06/06 04:13:44;;;;;;;7.67;7.07;;;;;;;;;;5044049;28;20218;-66
2022/06/06 04:16:12;;;;;;;7.43;6.83;;;;;;;;;;5048528;28;20300;-68
2022/06/06 04:18:58;;;;;;;7.73;7.03;;;;;;;;;;5040151;28;20867;-68
2022/06/06 04:21:34;;;;;;;7.07;6.47;;;;;;;;;;5049538;28;20198;-66
2022/06/06 04:24:11;;;;;;;7.60;6.90;;;;;;;;;;5046335;28;20214;-66
2022/06/06 04:26:47;;;;;;;6.90;6.27;;;;;;;;;;5033467;28;20632;-67
2022/06/06 04:29:20;;;;;;;7.37;6.70;;;;;;;;;;5048680;28;20216;-67
2022/06/06 04:32:06;;;;;;;6.87;6.27;;;;;;;;;;5041094;28;20261;-67
2022/06/06 04:34:45;;;;;;;6.47;5.87;;;;;;;;;;5044089;28;20644;-68
2022/06/06 04:37:18;;;;;;;6.63;6.03;;;;;;;;;;5023105;28;20202;-68
2022/06/06 04:39:45;;;;;;;7.03;6.37;;;;;;;;;;5042311;28;20465;-68
2022/06/06 04:42:48;;;;;;;6.33;5.83;;;;;;;;;;5034433;28;20206;-67
2022/06/06 04:45:34;;;;;;;6.33;5.80;;;;;;;;;;4945711;28;20268;-68
2022/06/06 04:48:02;;;;;;;6.70;6.10;;;;;;;;;;5019191;28;20288;-68
2022/06/06 04:50:29;;;;;;;6.50;5.90;;;;;;;;;;5043742;28;20194;-68
2022/06/06 04:52:59;;;;;;;5.90;5.40;;;;;;;;;;5048198;28;20199;-67
2022/06/06 04:55:27;;;;;;;6.13;5.63;;;;;;;;;;5044550;28;20190;-66
2022/06/06 04:57:55;;;;;;;6.50;5.80;;;;;;;;;;5029042;28;20236;-66
2022/06/06 05:00:24;;;;;;;5.77;5.30;;;;;;;;;;5036609;28;20240;-66
2022/06/06 05:02:55;;;;;;;6.57;5.93;;;;;;;;;;5022852;28;20205;-65
2022/06/06 05:05:31;;;;;;;5.50;5.00;;;;;;;;;;5027065;28;20241;-67
2022/06/06 05:08:18;;;;;;;5.80;5.30;;;;;;;;;;5047212;28;20198;-68
2022/06/06 05:10:56;;;;;;;5.23;4.73;;;;;;;;;;5048300;28;20186;-68
2022/06/06 05:13:31;;;;;;;5.77;5.27;;;;;;;;;;5043283;28;20748;-68
2022/06/06 05:16:18;;;;;;;5.17;4.77;;;;;;;;;;5045024;28;20217;-66
2022/06/06 05:18:51;;;;;;;5.13;4.63;;;;;;;;;;5031573;28;20206;-65
2022/06/06 05:21:59;;;;;;;5.00;4.60;;;;;;;;;;5046223;28;20287;-66
2022/06/06 05:24:39;;;;;;;5.07;4.67;;;;;;;;;;4944003;28;20217;-66
2022/06/06 05:27:13;;;;;;;4.83;4.43;;;;;;;;;;4943725;29;20209;-65
2022/06/06 05:29:47;;;;;;;5.27;4.87;;;;;;;;;;4940115;28;20197;-66
2022/06/06 05:32:35;;;;;;;4.43;4.13;;;;;;;;;;4942197;28;20264;-67
2022/06/06 05:35:02;;;;;;;4.83;4.43;;;;;;;;;;4924917;28;20210;-67
2022/06/06 05:38:00;;;;;;;4.87;4.47;;;;;;;;;;4926003;28;20217;-67
2022/06/06 05:40:48;;;;;;;4.60;4.23;;;;;;;;;;5021512;28;20290;-66
2022/06/06 05:43:41;;;;;;;4.87;4.47;;;;;;;;;;5026315;28;20265;-66
2022/06/06 05:46:16;;;;;;;4.50;4.10;;;;;;;;;;5021099;28;20602;-67
2022/06/06 05:49:07;;;;;;;4.97;4.47;;;;;;;;;;5023243;28;20245;-68
2022/06/06 05:51:48;;;;;;;4.87;4.47;;;;;;;;;;4985444;28;20207;-69
2022/06/06 05:54:53;;;;;;;4.80;4.40;;;;;;;;;;5017107;28;20188;-68
2022/06/06 05:57:28;;;;;;;4.43;3.97;;;;;;;;;;5005320;28;20198;-68
2022/06/06 06:00:07;;;;;;;4.33;4.03;;;;;;;;;;5025487;28;20274;-67
2022/06/06 06:03:05;;;;;;;5.03;3.70;;;;;;;;;;5026305;28;20241;-66
2022/06/06 06:05:56;;;;;;;3.80;3.50;;;;;;;;;;4953330;28;20270;-68
2022/06/06 06:08:32;;;;;;;4.03;3.63;;;;;;;;;;5026266;28;20195;-68
2022/06/06 06:11:10;;;;;;;3.67;3.30;;;;;;;;;;5026650;28;20201;-67
2022/06/06 06:13:50;;;;;;;3.83;3.53;;;;;;;;;;5022044;28;20218;-66
2022/06/06 06:16:23;;;;;;;3.77;3.47;;;;;;;;;;5025545;28;20195;-66
2022/06/06 06:19:07;;;;;;;3.90;3.50;;;;;;;;;;5004627;28;20202;-67
2022/06/06 06:21:41;;;;;;;4.20;3.80;;;;;;;;;;5019604;28;20285;-66
2022/06/06 06:24:17;;;;;;;3.67;3.37;;;;;;;;;;5008986;28;20210;-66
2022/06/06 06:26:48;;;;;;;3.43;3.17;;;;;;;;;;5018491;28;20246;-66
2022/06/06 06:29:21;;;;;;;3.17;2.97;;;;;;;;;;5004580;28;20200;-66
2022/06/06 06:32:01;;;;;;;3.50;3.20;;;;;;;;;;5001793;28;20203;-67
2022/06/06 06:34:48;;;;;;;3.20;2.97;;;;;;;;;;5040825;28;20226;-66
2022/06/06 06:37:37;;;;;;;4.77;3.10;;;;;;;;;;5037271;28;20694;-68
2022/06/06 06:40:20;;;;;;;3.23;2.93;;;;;;;;;;5042460;28;20203;-68
2022/06/06 06:43:11;;;;;;;3.80;3.17;;;;;;;;;;5046831;28;20201;-68
2022/06/06 06:45:43;;;;;;;3.40;3.13;;;;;;;;;;5025869;28;20214;-66
2022/06/06 06:48:12;;;;;;;3.10;2.80;;;;;;;;;;5039388;28;20206;-66
2022/06/06 06:50:59;;;;;;;3.00;2.80;;;;;;;;;;5046441;28;20278;-67
2022/06/06 06:53:34;;;;;;;3.63;3.30;;;;;;;;;;5043578;28;20202;-67
2022/06/06 06:56:04;;;;;;;3.00;2.80;;;;;;;;;;5045766;28;20214;-67
2022/06/06 06:58:38;;;;;;;3.47;3.00;;;;;;;;;;5043584;28;20206;-68
2022/06/06 07:01:12;;;;;;;2.97;2.60;;;;;;;;;;5040994;28;20235;-65
2022/06/06 07:09:57;;;;;;;4.37;2.70;;;;;;;;;;5041077;28;20629;-67
2022/06/06 07:12:59;;;;;;;2.67;2.47;;;;;;;;;;5041677;28;20643;-68
2022/06/06 07:15:29;;;;;;;7.40;2.47;;;;;;;;;;4966692;28;20255;-68
2022/06/06 07:17:59;;;;;;;2.50;2.30;;;;;;;;;;5029980;28;20276;-66
2022/06/06 07:20:27;;;;;;;3.37;2.30;;;;;;;;;;5049734;28;20206;-66
2022/06/06 07:23:02;;;;;;;4.97;2.50;;;;;;;;;;5050316;28;20206;-66
2022/06/06 07:25:36;;;;;;;3.20;2.00;;;;;;;;;;5042393;28;20297;-67
2022/06/06 07:28:04;;;;;;;2.77;1.73;;;;;;;;;;5045927;28;20262;-67
2022/06/06 07:30:33;;;;;;;3.43;2.30;;;;;;;;;;5047715;28;20236;-66
2022/06/06 07:33:19;;;;;;;4.10;2.33;;;;;;;;;;5048323;28;20226;-67
2022/06/06 07:35:58;;;;;;;3.57;2.00;;;;;;;;;;5040408;28;20795;-67
2022/06/06 07:38:35;;;;;;;2.40;1.90;;;;;;;;;;5046935;28;20198;-67
2022/06/06 07:41:08;;;;;;;3.40;1.90;;;;;;;;;;5048711;28;20431;-67
2022/06/06 07:43:42;;;;;;;3.17;1.90;;;;;;;;;;5049341;28;20671;-67
2022/06/06 07:46:29;;;;;;;5.37;2.00;;;;;;;;;;5017056;28;20229;-67
2022/06/06 07:49:22;;;;;;;3.43;2.13;;;;;;;;;;5047822;28;20210;-66
2022/06/06 07:51:54;;;;;;;7.47;1.90;;;;;;;;;;5050477;28;20893;-68
2022/06/06 07:54:43;;;;;;;5.10;2.20;;;;;;;;;;5047366;28;20901;-67
2022/06/06 07:57:29;;;;;;;6.30;2.27;;;;;;;;;;5050377;28;20198;-68
2022/06/06 08:00:02;;;;;;;3.53;1.83;;;;;;;;;;5046969;28;20564;-69
2022/06/06 08:03:03;;;;;;;4.03;1.87;;;;;;;;;;5049984;28;20202;-66
2022/06/06 08:05:49;;;;;;;4.40;1.60;;;;;;;;;;5020978;28;20219;-68
2022/06/06 08:08:41;;;;;;;3.20;1.77;;;;;;;;;;5026446;28;20265;-69
2022/06/06 08:11:20;;;;;;;3.03;1.40;;;;;;;;;;5028309;28;20707;-69
2022/06/06 08:14:10;;;;;;;1.77;1.40;;;;;;;;;;5005499;28;20212;-68
2022/06/06 08:17:01;;;;;;;4.57;1.33;;;;;;;;;;5024540;28;20260;-67
2022/06/06 08:19:51;;;;;;;2.73;1.57;;;;;;;;;;5019981;28;20216;-67
2022/06/06 08:22:19;;;;;;;2.27;1.23;;;;;;;;;;5022471;28;20203;-67
2022/06/06 08:24:54;;;;;;;1.37;1.10;;;;;;;;;;5004341;28;20203;-65
2022/06/06 08:27:36;;;;;;;2.70;1.37;;;;;;;;;;5023017;28;20198;-67
2022/06/06 08:30:09;;;;;;;3.60;1.20;;;;;;;;;;5022467;28;20605;-65
2022/06/06 08:32:43;;;;;;;4.57;1.40;;;;;;;;;;5000296;28;20688;-67
2022/06/06 08:35:12;;;;;;;2.90;1.07;;;;;;;;;;5020593;28;20195;-66
2022/06/06 08:37:58;;;;;;;1.47;1.00;;;;;;;;;;5037385;28;20202;-66
2022/06/06 08:40:47;;;;;;;4.23;1.40;;;;;;;;;;5044712;28;20206;-66
2022/06/06 08:43:16;;;;;;;1.13;0.90;;;;;;;;;;5044624;28;20193;-65
2022/06/06 08:46:15;;;;;;;3.90;1.30;;;;;;;;;;5041594;28;20682;-65
2022/06/06 08:48:57;;;;;;;3.40;1.20;;;;;;;;;;5028069;28;20202;-67
2022/06/06 08:51:36;;;;;;;2.33;0.90;;;;;;;;;;5040588;28;20236;-70
2022/06/06 08:54:23;;;;;;;2.40;1.00;;;;;;;;;;5048112;28;20911;-67
2022/06/06 08:57:15;;;;;;;1.87;1.00;;;;;;;;;;5046092;28;20255;-68
2022/06/06 08:59:57;;;;;;;3.30;1.13;;;;;;;;;;5038283;28;20711;-68
2022/06/06 09:02:39;;;;;;;1.77;1.30;;;;;;;;;;5043506;28;20495;-67
2022/06/06 09:05:27;;;;;;;1.83;1.07;;;;;;;;;;5044574;28;20867;-67
2022/06/06 09:08:14;;;;;;;2.23;0.80;;;;;;;;;;5048311;28;20202;-67
2022/06/06 09:10:44;;;;;;;2.23;1.10;;;;;;;;;;5045726;28;20194;-69
2022/06/06 09:13:15;;;;;;;5.10;1.10;;;;;;;;;;5030201;28;20673;-68
2022/06/06 09:16:07;;;;;;;2.07;1.10;;;;;;;;;;5038738;28;20209;-67
2022/06/06 09:19:07;;;;;;;1.30;0.80;;;;;;;;;;5045066;28;20191;-66
2022/06/06 09:21:52;;;;;;;2.50;1.27;;;;;;;;;;5043042;28;20245;-66
2022/06/06 09:24:40;;;;;;;1.10;0.90;;;;;;;;;;5044009;28;20209;-67
2022/06/06 09:27:28;;;;;;;1.93;1.00;;;;;;;;;;5045779;28;20212;-67
2022/06/06 09:29:56;;;;;;;2.57;1.30;;;;;;;;;;5046319;28;20206;-67
2022/06/06 09:32:43;;;;;;;2.03;1.00;;;;;;;;;;5043049;28;20283;-67
2022/06/06 09:35:28;;;;;;;2.90;0.90;;;;;;;;;;5008073;28;20184;-66
2022/06/06 09:38:09;;;;;;;2.50;1.20;;;;;;;;;;5021051;28;20213;-65
2022/06/06 09:40:51;;;;;;;10.00;2.50;;;;;;;;;;5022846;28;20269;-68
2022/06/06 09:43:26;;;;;;;7.50;2.40;;;;;;;;;;5013440;28;20190;-68
2022/06/06 09:46:09;;;;;;;8.90;2.10;;;;;;;;;;5021891;28;20226;-66
2022/06/06 09:48:57;;;;;;;7.67;2.30;;;;;;;;;;5021196;28;20590;-67
2022/06/06 09:51:27;;;;;;;4.37;1.80;;;;;;;;;;5021875;28;20192;-68
2022/06/06 09:59:37;;;;;;;2.47;2.03;;;;;;;;;;5013723;28;20635;-68
2022/06/06 10:02:05;;;;;;;6.20;1.73;;;;;;;;;;5025098;28;20214;-68
2022/06/06 10:04:45;;;;;;;2.97;1.67;;;;;;;;;;5019949;28;20712;-69
2022/06/06 10:07:23;;;;;;;2.83;1.43;;;;;;;;;;5023839;28;20221;-70
2022/06/06 10:09:56;;;;;;;2.60;1.60;;;;;;;;;;5004408;28;20206;-71
2022/06/06 10:12:42;;;;;;;5.57;1.70;;;;;;;;;;5023010;28;20315;-70
2022/06/06 10:15:28;;;;;;;4.47;1.57;;;;;;;;;;5024165;28;20206;-68
2022/06/06 10:18:14;;;;;;;2.83;1.40;;;;;;;;;;5025274;28;20199;-66
2022/06/06 10:20:48;;;;;;;3.10;1.30;;;;;;;;;;5023182;28;20245;-66
2022/06/06 10:23:35;;;;;;;2.97;1.43;;;;;;;;;;5022272;28;20660;-66
2022/06/06 10:26:21;;;;;;;3.27;1.70;;;;;;;;;;4992625;28;20250;-67
2022/06/06 10:29:08;;;;;;;1.43;1.10;;;;;;;;;;5026535;28;20621;-67
2022/06/06 10:31:54;;;;;;;1.40;1.20;;;;;;;;;;5023972;28;20198;-66
2022/06/06 10:34:40;;;;;;;3.40;1.20;;;;;;;;;;5019802;28;20431;-67
2022/06/06 10:37:19;;;;;;;1.43;1.10;;;;;;;;;;5044282;28;20244;-66
2022/06/06 10:39:53;;;;;;;2.07;1.10;;;;;;;;;;5043162;28;20594;-66
2022/06/06 10:42:23;;;;;;;2.47;1.20;;;;;;;;;;5046410;28;20766;-66
2022/06/06 10:44:58;;;;;;;1.30;1.20;;;;;;;;;;5044658;28;20211;-66
2022/06/06 10:47:40;;;;;;;2.97;1.10;;;;;;;;;;5043798;28;20222;-66
2022/06/06 10:50:24;;;;;;;1.30;1.20;;;;;;;;;;5042276;28;20260;-66
2022/06/06 10:53:24;;;;;;;1.80;1.30;;;;;;;;;;5034995;28;20792;-67
2022/06/06 10:56:14;;;;;;;2.23;1.30;;;;;;;;;;5048647;28;20190;-67
2022/06/06 10:59:12;;;;;;;1.57;1.10;;;;;;;;;;5049792;28;20198;-66
2022/06/06 11:02:01;;;;;;;2.60;1.27;;;;;;;;;;5039392;28;20238;-66
2022/06/06 11:04:46;;;;;;;1.20;1.10;;;;;;;;;;5047692;28;20322;-67
2022/06/06 11:07:25;;;;;;;1.70;1.00;;;;;;;;;;5013076;28;20269;-67
2022/06/06 11:09:57;;;;;;;1.00;0.90;;;;;;;;;;5034676;28;20194;-68
2022/06/06 11:13:11;;;;;;;1.53;1.03;;;;;;;;;;5042786;28;20717;-66
2022/06/06 11:16:04;;;;;;;2.00;1.10;;;;;;;;;;5003508;28;20202;-66
2022/06/06 11:18:52;;;;;;;1.50;0.93;;;;;;;;;;5044208;28;20524;-66
2022/06/06 11:21:45;;;;;;;1.20;1.10;;;;;;;;;;5045968;28;20230;-66
2022/06/06 11:24:24;;;;;;;2.00;0.90;;;;;;;;;;5045177;28;20217;-66
2022/06/06 11:27:10;;;;;;;1.50;1.30;;;;;;;;;;5029814;28;20218;-64
2022/06/06 11:29:42;;;;;;;0.90;0.90;;;;;;;;;;5042928;28;20629;-66
2022/06/06 11:32:31;;;;;;;3.20;1.40;;;;;;;;;;5043171;28;20189;-66
2022/06/06 11:35:08;;;;;;;1.87;0.97;;;;;;;;;;5046509;28;20198;-66
2022/06/06 11:38:04;;;;;;;1.10;1.00;;;;;;;;;;5019144;28;20241;-66
2022/06/06 11:40:51;;;;;;;1.50;1.07;;;;;;;;;;5049484;28;20287;-66
2022/06/06 11:43:41;;;;;;;1.13;1.00;;;;;;;;;;5053973;28;20275;-66
2022/06/06 11:46:25;;;;;;;2.57;0.90;;;;;;;;;;5043955;28;20288;-67
2022/06/06 11:49:13;;;;;;;2.67;0.90;;;;;;;;;;5041185;28;20198;-67
2022/06/06 11:51:47;;;;;;;2.77;1.00;;;;;;;;;;5043844;28;20207;-65
2022/06/06 11:54:20;;;;;;;1.77;1.17;;;;;;;;;;5046927;28;20190;-67
2022/06/06 11:57:07;;;;;;;1.13;0.90;;;;;;;;;;5022033;28;20198;-68
2022/06/06 11:59:53;;;;;;;1.13;0.87;;;;;;;;;;5034976;28;20194;-67
2022/06/06 12:02:39;;;;;;;2.23;0.90;;;;;;;;;;5047875;28;20217;-69
2022/06/06 12:05:19;;;;;;;3.50;1.00;;;;;;;;;;5047753;28;20210;-71
2022/06/06 12:08:12;;;;;;;2.73;0.70;;;;;;;;;;5031843;28;20206;-71
2022/06/06 12:10:50;;;;;;;1.20;0.90;;;;;;;;;;5042624;28;20525;-69
2022/06/06 12:13:46;;;;;;;1.37;1.00;;;;;;;;;;5041930;28;20210;-68
2022/06/06 12:16:24;;;;;;;1.17;1.00;;;;;;;;;;4968582;28;20213;-68
2022/06/06 12:19:11;;;;;;;2.17;0.90;;;;;;;;;;5040484;28;20194;-67
2022/06/06 12:21:50;;;;;;;1.57;0.90;;;;;;;;;;5039199;28;20217;-68
2022/06/06 12:24:29;;;;;;;1.30;1.10;;;;;;;;;;5036900;28;20279;-67
2022/06/06 12:27:15;;;;;;;2.10;0.93;;;;;;;;;;5041371;28;20222;-67
2022/06/06 12:29:58;;;;;;;1.10;1.00;;;;;;;;;;5036890;28;20264;-68
2022/06/06 12:32:43;;;;;;;2.87;1.27;;;;;;;;;;5044018;28;20185;-68
2022/06/06 12:35:14;;;;;;;2.07;0.90;;;;;;;;;;5031470;28;20198;-68
2022/06/06 12:38:05;;;;;;;1.57;0.90;;;;;;;;;;5013692;28;20219;-68
2022/06/06 12:40:38;;;;;;;1.30;0.90;;;;;;;;;;5045946;28;20202;-69
2022/06/06 12:43:11;;;;;;;1.13;0.90;;;;;;;;;;5036931;28;20280;-68
2022/06/06 12:45:47;;;;;;;1.90;1.00;;;;;;;;;;5032754;28;20228;-67
2022/06/06 12:48:20;;;;;;;2.80;1.00;;;;;;;;;;5037530;28;20257;-68
2022/06/06 12:50:57;;;;;;;4.37;1.00;;;;;;;;;;5039516;28;20214;-67
2022/06/06 12:53:43;;;;;;;1.17;0.87;;;;;;;;;;5040792;28;20194;-67
2022/06/06 12:56:23;;;;;;;2.30;0.90;;;;;;;;;;5039950;28;20198;-67
2022/06/06 12:58:59;;;;;;;1.47;1.30;;;;;;;;;;5020963;28;20202;-67
2022/06/06 13:01:45;;;;;;;0.80;0.80;;;;;;;;;;5035967;28;20545;-67
2022/06/06 13:04:12;;;;;;;1.40;0.83;;;;;;;;;;5038153;28;20691;-67
2022/06/06 13:06:54;;;;;;;2.00;0.90;;;;;;;;;;5038701;28;20222;-67
2022/06/06 13:09:29;;;;;;;2.77;1.00;;;;;;;;;;5020096;28;20597;-67
2022/06/06 13:12:10;;;;;;;0.90;0.80;;;;;;;;;;5038222;28;21728;-67
2022/06/06 13:14:43;;;;;;;1.17;0.80;;;;;;;;;;5020223;28;20924;-67
2022/06/06 13:17:21;;;;;;;0.97;0.90;;;;;;;;;;5039854;28;20950;-68
2022/06/06 13:19:49;;;;;;;1.47;0.93;;;;;;;;;;5038083;28;20198;-66
2022/06/06 13:22:29;;;;;;;4.33;0.80;;;;;;;;;;5023896;28;20512;-65
2022/06/06 13:25:15;;;;;;;2.37;0.90;;;;;;;;;;5014184;28;20221;-65
2022/06/06 13:27:51;;;;;;;2.00;0.83;;;;;;;;;;5039815;28;20213;-65
2022/06/06 13:30:23;;;;;;;1.10;0.80;;;;;;;;;;5043606;28;20197;-66
2022/06/06 13:33:34;;;;;;;3.37;1.13;;;;;;;;;;5038387;28;20292;-69
2022/06/06 13:36:01;;;;;;;4.40;0.90;;;;;;;;;;5002748;28;20218;-69
2022/06/06 13:38:43;;;;;;;1.97;1.00;;;;;;;;;;5040423;28;20256;-70
2022/06/06 13:41:24;;;;;;;2.97;0.90;;;;;;;;;;5037457;28;20194;-70
2022/06/06 13:43:54;;;;;;;2.10;0.90;;;;;;;;;;5041420;28;20194;-68
2022/06/06 13:46:34;;;;;;;2.37;0.90;;;;;;;;;;5043988;28;20206;-67
2022/06/06 13:49:10;;;;;;;1.50;0.87;;;;;;;;;;5036652;28;20221;-68
2022/06/06 13:51:42;;;;;;;1.37;0.70;;;;;;;;;;5037500;28;20703;-65
2022/06/06 13:54:25;;;;;;;1.53;0.77;;;;;;;;;;5040014;28;20213;-67
2022/06/06 13:56:52;;;;;;;5.20;1.93;;;;;;;;;;5040123;28;20718;-66
2022/06/06 13:59:36;;;;;;;7.93;2.60;;;;;;;;;;5041849;28;20210;-66
2022/06/06 14:02:04;;;;;;;10.13;2.80;;;;;;;;;;5040766;28;20944;-67
2022/06/06 14:04:42;;;;;;;8.87;2.57;;;;;;;;;;5041589;28;20691;-66
2022/06/06 14:07:28;;;;;;;8.17;2.43;;;;;;;;;;5039933;28;20559;-66
2022/06/06 14:10:06;;;;;;;4.20;1.50;;;;;;;;;;5041580;28;20722;-67
2022/06/06 14:12:33;;;;;;;6.80;1.97;;;;;;;;;;5039311;28;20217;-67
2022/06/06 14:15:02;;;;;;;4.40;1.80;;;;;;;;;;5014162;28;20194;-67
2022/06/06 14:17:31;;;;;;;8.43;1.77;;;;;;;;;;5038537;28;20210;-67
2022/06/06 14:20:12;;;;;;;5.63;1.10;;;;;;;;;;5042185;28;20667;-67
2022/06/06 14:22:40;;;;;;;3.67;1.10;;;;;;;;;;5042436;28;20240;-66
2022/06/06 14:25:08;;;;;;;2.70;1.10;;;;;;;;;;5042075;28;20225;-66
2022/06/06 14:27:36;;;;;;;3.30;1.10;;;;;;;;;;5043450;28;20272;-66
2022/06/06 14:30:08;;;;;;;5.27;1.07;;;;;;;;;;5042421;28;21033;-67
2022/06/06 14:32:42;;;;;;;2.63;1.03;;;;;;;;;;5046685;28;21058;-66
2022/06/06 14:35:15;;;;;;;2.53;1.00;;;;;;;;;;5046488;28;20193;-66
2022/06/06 14:37:45;;;;;;;2.30;0.97;;;;;;;;;;5040486;28;20222;-67
2022/06/06 14:40:37;;;;;;;1.63;0.83;;;;;;;;;;5046249;28;20267;-67
2022/06/06 14:43:06;;;;;;;2.20;1.00;;;;;;;;;;5027427;28;20214;-66
2022/06/06 14:45:37;;;;;;;1.80;0.90;;;;;;;;;;5044351;28;22201;-66
2022/06/06 14:48:18;;;;;;;2.47;1.10;;;;;;;;;;5025198;28;20241;-66
2022/06/06 14:51:00;;;;;;;1.67;0.90;;;;;;;;;;5029146;28;20332;-66
2022/06/06 14:53:35;;;;;;;2.20;0.90;;;;;;;;;;5026395;28;20213;-66
2022/06/06 14:56:19;;;;;;;2.70;1.17;;;;;;;;;;5038917;28;20302;-66
2022/06/06 14:58:55;;;;;;;2.40;0.90;;;;;;;;;;5045773;28;20297;-66
2022/06/06 15:01:25;;;;;;;3.13;0.97;;;;;;;;;;5037010;28;20206;-66
2022/06/06 15:03:54;;;;;;;1.90;1.00;;;;;;;;;;5045536;28;20921;-66
2022/06/06 15:06:32;;;;;;;2.20;1.13;;;;;;;;;;5045310;28;20205;-66
2022/06/06 15:09:21;;;;;;;1.50;0.83;;;;;;;;;;5027503;28;20210;-67
2022/06/06 15:11:50;;;;;;;1.20;0.73;;;;;;;;;;5024373;28;20957;-66
2022/06/06 15:14:24;;;;;;;1.00;0.90;;;;;;;;;;5043878;28;20202;-66
2022/06/06 15:16:56;;;;;;;1.83;1.00;;;;;;;;;;5044639;28;20206;-66
2022/06/06 15:19:28;;;;;;;1.10;1.00;;;;;;;;;;5042266;28;20198;-66
2022/06/06 15:22:05;;;;;;;1.47;1.00;;;;;;;;;;5046001;28;20199;-66
2022/06/06 15:24:43;;;;;;;1.47;1.10;;;;;;;;;;5042264;28;20244;-67
2022/06/06 15:27:35;;;;;;;3.83;1.00;;;;;;;;;;5029451;28;20217;-67
2022/06/06 15:30:19;;;;;;;4.37;1.70;;;;;;;;;;5003435;28;20272;-70
2022/06/06 15:33:17;;;;;;;1.23;1.10;;;;;;;;;;5028812;28;20682;-68
2022/06/06 15:36:05;;;;;;;4.17;1.30;;;;;;;;;;5030560;28;20214;-68
2022/06/06 15:38:59;;;;;;;1.87;1.03;;;;;;;;;;5047323;28;20233;-69
2022/06/06 15:41:42;;;;;;;3.93;1.03;;;;;;;;;;5020752;28;20186;-68
2022/06/06 15:44:18;;;;;;;2.73;1.53;;;;;;;;;;5045166;28;20202;-69
2022/06/06 15:46:46;;;;;;;4.63;1.30;;;;;;;;;;5044751;28;20209;-67
2022/06/06 15:49:28;;;;;;;2.87;1.60;;;;;;;;;;5041592;28;20613;-66
2022/06/06 15:52:05;;;;;;;1.47;1.33;;;;;;;;;;5046155;28;20901;-71
2022/06/06 15:54:47;;;;;;;2.23;1.37;;;;;;;;;;5046353;28;20202;-68
2022/06/06 15:57:17;;;;;;;3.17;1.70;;;;;;;;;;5045928;28;20280;-67
2022/06/06 16:00:05;;;;;;;2.77;1.50;;;;;;;;;;5032887;28;20210;-67
2022/06/06 16:02:38;;;;;;;1.43;1.17;;;;;;;;;;5031152;28;20222;-69
2022/06/06 16:05:14;;;;;;;4.27;1.47;;;;;;;;;;5044273;28;20260;-68